createdAt,value
2022-11-24T00:00:45.226Z,39.40
2022-11-24T00:04:01.112Z,50.40
2022-11-24T00:07:04.804Z,56.20
2022-11-24T00:10:08.083Z,44.22
2022-11-24T00:13:11.814Z,42.88
2022-11-24T00:16:16.335Z,38.38
2022-11-24T00:19:19.860Z,33.40
2022-11-24T00:22:23.895Z,44.75
2022-11-24T00:25:27.799Z,39.00
2022-11-24T00:28:31.306Z,41.23
2022-11-24T00:31:37.907Z,40.35
2022-11-24T00:34:42.981Z,43.92
2022-11-24T00:37:46.255Z,42.77
2022-11-24T00:40:50.255Z,43.67
2022-11-24T00:43:54.252Z,47.83
2022-11-24T00:46:58.257Z,47.33
2022-11-24T00:50:01.823Z,47.90
2022-11-24T00:53:05.867Z,41.40
2022-11-24T00:56:11.076Z,50.35
2022-11-24T00:59:14.971Z,36.57
2022-11-24T01:02:18.608Z,49.60
2022-11-24T01:05:22.651Z,53.03
2022-11-24T01:08:26.267Z,52.13
2022-11-24T01:11:56.059Z,43.65
2022-11-24T01:14:59.783Z,52.22
2022-11-24T01:18:03.395Z,56.72
2022-11-24T01:21:10.013Z,54.63
2022-11-24T01:24:14.914Z,52.67
2022-11-24T01:27:18.544Z,41.38
2022-11-24T01:30:23.897Z,43.07
2022-11-24T01:33:27.756Z,42.22
2022-11-24T01:36:31.826Z,53.53
2022-11-24T01:39:35.448Z,52.87
2022-11-24T01:42:50.073Z,53.42
2022-11-24T01:45:54.320Z,51.83
2022-11-24T01:49:27.790Z,51.28
2022-11-24T01:52:40.262Z,55.03
2022-11-24T01:55:43.317Z,59.92
2022-11-24T01:58:48.403Z,61.50
2022-11-24T02:01:53.493Z,58.20
2022-11-24T02:05:02.361Z,58.30
2022-11-24T02:08:08.610Z,63.50
2022-11-24T02:11:11.676Z,51.73
2022-11-24T02:14:18.678Z,76.50
2022-11-24T02:17:22.492Z,61.92
2022-11-24T02:20:26.991Z,33.53
2022-11-24T02:23:45.069Z,49.20
2022-11-24T02:26:50.101Z,38.97
2022-11-24T02:29:53.899Z,32.55
2022-11-24T02:32:57.516Z,51.10
2022-11-24T02:36:01.179Z,44.83
2022-11-24T02:39:04.522Z,41.70
2022-11-24T02:42:12.598Z,37.07
2022-11-24T02:45:17.602Z,26.52
2022-11-24T02:48:21.203Z,25.65
2022-11-24T02:51:25.268Z,26.90
2022-11-24T02:54:29.296Z,32.63
2022-11-24T02:57:33.185Z,31.30
2022-11-24T03:00:36.508Z,29.40
2022-11-24T03:03:40.728Z,28.90
2022-11-24T03:06:44.261Z,37.90
2022-11-24T03:09:48.164Z,38.28
2022-11-24T03:12:51.790Z,38.37
2022-11-24T03:15:55.853Z,40.88
2022-11-24T03:19:00.148Z,40.67
2022-11-24T03:22:05.090Z,36.97
2022-11-24T03:25:09.274Z,33.25
2022-11-24T03:28:13.254Z,38.40
2022-11-24T03:31:17.160Z,35.05
2022-11-24T03:34:21.367Z,40.43
2022-11-24T03:37:24.599Z,30.88
2022-11-24T03:40:28.567Z,26.27
2022-11-24T03:43:33.410Z,24.57
2022-11-24T03:46:37.585Z,25.02
2022-11-24T03:49:42.047Z,30.77
2022-11-24T03:52:46.063Z,24.80
2022-11-24T03:55:49.594Z,23.63
2022-11-24T03:58:53.498Z,19.38
2022-11-24T04:01:57.228Z,16.90
2022-11-24T04:05:01.555Z,16.03
2022-11-24T04:08:06.361Z,18.20
2022-11-24T04:11:30.050Z,17.77
2022-11-24T04:14:33.821Z,18.80
2022-11-24T04:17:38.086Z,18.98
2022-11-24T04:20:42.713Z,18.05
2022-11-24T04:23:47.017Z,18.65
2022-11-24T04:26:50.293Z,15.75
2022-11-24T04:29:54.264Z,15.55
2022-11-24T04:32:57.958Z,16.20
2022-11-24T04:36:01.505Z,17.93
2022-11-24T04:39:25.523Z,20.23
2022-11-24T04:42:29.050Z,13.75
2022-11-24T04:45:32.254Z,16.23
2022-11-24T04:48:36.199Z,12.77
2022-11-24T04:51:40.615Z,15.90
2022-11-24T04:54:44.702Z,18.48
2022-11-24T04:57:48.297Z,16.83
2022-11-24T05:00:52.248Z,17.38
2022-11-24T05:03:56.511Z,14.10
2022-11-24T05:07:00.057Z,16.92
2022-11-24T05:10:22.100Z,12.10
2022-11-24T05:13:26.037Z,11.25
2022-11-24T05:16:29.750Z,13.50
2022-11-24T05:19:34.286Z,16.48
2022-11-24T05:22:37.901Z,17.48
2022-11-24T05:25:47.327Z,16.35
2022-11-24T05:28:51.382Z,18.98
2022-11-24T05:31:54.758Z,16.23
2022-11-24T05:34:58.901Z,10.07
2022-11-24T05:38:03.103Z,10.68
2022-11-24T05:41:07.014Z,16.95
2022-11-24T05:44:10.973Z,14.43
2022-11-24T05:47:14.524Z,18.02
2022-11-24T05:50:20.786Z,16.30
2022-11-24T05:53:24.505Z,12.60
2022-11-24T05:56:28.103Z,22.63
2022-11-24T05:59:31.450Z,16.45
2022-11-24T06:02:35.802Z,17.23
2022-11-24T06:05:39.382Z,14.00
2022-11-24T06:08:43.353Z,12.18
2022-11-24T06:11:48.755Z,9.43
2022-11-24T06:14:52.425Z,7.20
2022-11-24T06:17:56.905Z,9.65
2022-11-24T06:21:10.677Z,11.10
2022-11-24T06:24:15.324Z,21.43
2022-11-24T06:27:19.833Z,14.13
2022-11-24T06:30:23.407Z,14.18
2022-11-24T06:33:27.289Z,13.50
2022-11-24T06:36:30.831Z,12.02
2022-11-24T06:39:34.799Z,13.75
2022-11-24T06:42:38.815Z,13.90
2022-11-24T06:45:42.754Z,15.40
2022-11-24T06:48:45.963Z,16.13
2022-11-24T06:51:50.035Z,16.45
2022-11-24T06:54:54.245Z,13.90
2022-11-24T06:57:58.144Z,14.23
2022-11-24T07:01:01.738Z,13.10
2022-11-24T07:04:05.743Z,11.87
2022-11-24T07:07:09.359Z,17.48
2022-11-24T07:10:13.270Z,11.77
2022-11-24T07:13:16.635Z,23.08
2022-11-24T07:16:22.945Z,16.17
2022-11-24T07:19:25.878Z,15.75
2022-11-24T07:22:30.199Z,12.90
2022-11-24T07:25:34.208Z,14.87
2022-11-24T07:28:38.748Z,16.30
2022-11-24T07:31:43.055Z,18.17
2022-11-24T07:34:47.137Z,21.10
2022-11-24T07:37:50.266Z,24.95
2022-11-24T07:40:53.192Z,24.63
2022-11-24T07:43:57.060Z,29.10
2022-11-24T07:47:00.947Z,21.95
2022-11-24T07:50:04.588Z,16.38
2022-11-24T07:53:08.544Z,13.55
2022-11-24T07:56:13.099Z,15.63
2022-11-24T07:59:16.507Z,16.35
2022-11-24T08:02:20.169Z,19.95
2022-11-24T08:05:23.977Z,17.40
2022-11-24T08:08:27.875Z,17.70
2022-11-24T08:11:33.791Z,26.00
2022-11-24T08:14:36.921Z,23.98
2022-11-24T08:17:40.990Z,33.75
2022-11-24T08:20:44.176Z,28.63
2022-11-24T08:23:47.707Z,35.15
2022-11-24T08:26:51.362Z,46.60
2022-11-24T08:29:55.395Z,44.90
2022-11-24T08:33:02.246Z,43.65
2022-11-24T08:36:08.782Z,37.63
2022-11-24T08:39:12.678Z,33.00
2022-11-24T08:42:17.067Z,29.75
2022-11-24T08:45:22.479Z,36.90
2022-11-24T08:48:27.236Z,33.40
2022-11-24T08:51:30.796Z,31.05
2022-11-24T08:54:35.066Z,31.10
2022-11-24T08:57:38.879Z,32.83
2022-11-24T09:00:42.885Z,50.45
2022-11-24T09:03:51.100Z,106.70
2022-11-24T09:06:55.333Z,116.23
2022-11-24T09:09:58.835Z,107.07
2022-11-24T09:13:03.113Z,112.53
2022-11-24T09:16:12.849Z,60.22
2022-11-24T09:19:16.689Z,61.95
2022-11-24T09:22:20.228Z,62.10
2022-11-24T09:25:26.922Z,55.72
2022-11-24T09:28:30.106Z,59.17
2022-11-24T09:31:36.674Z,63.20
2022-11-24T09:34:40.196Z,40.50
2022-11-24T09:37:45.659Z,37.70
2022-11-24T09:40:50.541Z,46.83
2022-11-24T09:44:04.270Z,59.38
2022-11-24T09:47:13.242Z,59.65
2022-11-24T09:50:43.404Z,60.25
2022-11-24T09:54:08.970Z,32.28
2022-11-24T09:57:14.631Z,39.65
2022-11-24T10:00:18.499Z,51.40
2022-11-24T10:03:51.694Z,33.88
2022-11-24T10:07:12.556Z,38.78
2022-11-24T10:10:35.593Z,69.80
2022-11-24T10:14:21.339Z,37.67
2022-11-24T10:17:52.211Z,44.22
2022-11-24T10:21:28.871Z,88.13
2022-11-24T10:24:52.849Z,90.55
2022-11-24T10:28:01.022Z,72.07
2022-11-24T10:31:24.037Z,53.05
2022-11-24T10:34:35.387Z,63.90
2022-11-24T10:37:48.591Z,56.17
2022-11-24T10:40:58.081Z,47.58
2022-11-24T10:44:02.017Z,49.07
2022-11-24T10:47:13.420Z,54.97
2022-11-24T10:50:19.946Z,46.00
2022-11-24T10:53:32.481Z,39.95
2022-11-24T10:56:43.063Z,45.10
2022-11-24T10:59:47.240Z,35.92
2022-11-24T11:03:10.562Z,45.40
2022-11-24T11:06:25.312Z,52.27
2022-11-24T11:09:28.096Z,67.72
2022-11-24T11:12:46.873Z,57.05
2022-11-24T11:15:50.459Z,60.00
2022-11-24T11:18:53.956Z,59.65
2022-11-24T11:22:27.699Z,78.28
2022-11-24T11:25:36.155Z,53.95
2022-11-24T11:28:39.655Z,45.53
2022-11-24T11:34:01.103Z,57.67
2022-11-24T11:35:06.115Z,43.17
2022-11-24T11:38:11.762Z,29.03
2022-11-24T11:41:22.672Z,50.15
2022-11-24T11:44:39.239Z,40.35
2022-11-24T11:47:55.253Z,46.23
2022-11-24T11:51:23.680Z,44.63
2022-11-24T11:54:49.350Z,38.75
2022-11-24T11:58:14.512Z,33.30
2022-11-24T12:01:55.187Z,28.48
2022-11-24T12:05:01.825Z,26.40
2022-11-24T12:08:56.019Z,32.08
2022-11-24T12:12:33.853Z,46.10
2022-11-24T12:15:49.112Z,46.17
2022-11-24T12:18:58.872Z,47.00
2022-11-24T12:22:14.775Z,51.83
2022-11-24T12:25:42.189Z,43.17
2022-11-24T12:28:56.478Z,53.90
2022-11-24T12:32:24.960Z,67.22
2022-11-24T12:35:41.670Z,67.00
2022-11-24T12:39:11.524Z,60.28
2022-11-24T12:42:39.736Z,38.88
2022-11-24T12:46:01.328Z,30.97
2022-11-24T12:49:11.078Z,31.20
2022-11-24T12:52:26.645Z,29.25
2022-11-24T12:55:33.104Z,30.20
2022-11-24T12:58:36.512Z,39.15
2022-11-24T13:02:00.412Z,39.05
2022-11-24T13:05:25.735Z,27.17
2022-11-24T13:08:52.984Z,27.67
2022-11-24T13:12:15.978Z,63.08
2022-11-24T13:15:44.718Z,55.97
2022-11-24T13:18:53.317Z,65.30
2022-11-24T13:22:02.811Z,95.05
2022-11-24T13:25:16.641Z,91.55
2022-11-24T13:29:06.147Z,98.70
2022-11-24T13:32:16.092Z,93.53
2022-11-24T13:35:19.085Z,78.80
2022-11-24T13:38:42.060Z,53.42
2022-11-24T13:41:51.425Z,56.33
2022-11-24T13:44:57.591Z,61.53
2022-11-24T13:48:01.289Z,49.63
2022-11-24T13:51:10.463Z,60.97
2022-11-24T13:54:15.740Z,53.22
2022-11-24T13:57:40.528Z,51.05
2022-11-24T14:01:13.086Z,58.27
2022-11-24T14:04:31.836Z,66.03
2022-11-24T14:07:37.065Z,61.17
2022-11-24T14:10:43.195Z,85.72
2022-11-24T14:13:47.121Z,79.63
2022-11-24T14:17:28.114Z,94.28
2022-11-24T14:20:31.959Z,75.25
2022-11-24T14:23:34.833Z,112.83
2022-11-24T14:26:40.935Z,137.00
2022-11-24T14:29:58.537Z,132.43
2022-11-24T14:33:04.301Z,116.73
2022-11-24T14:36:18.184Z,86.10
2022-11-24T14:39:26.317Z,89.28
2022-11-24T14:42:29.539Z,55.75
2022-11-24T14:45:33.670Z,71.43
2022-11-24T14:48:40.764Z,72.70
2022-11-24T14:51:46.061Z,47.97
2022-11-24T14:54:54.969Z,49.63
2022-11-24T14:57:58.699Z,59.97
2022-11-24T15:01:33.520Z,56.40
2022-11-24T15:05:04.525Z,59.40
2022-11-24T15:08:13.853Z,56.17
2022-11-24T15:11:17.616Z,54.08
2022-11-24T15:14:44.386Z,53.28
2022-11-24T15:17:56.844Z,49.20
2022-11-24T15:21:00.659Z,54.55
2022-11-24T15:24:14.864Z,42.38
2022-11-24T15:27:18.706Z,45.23
2022-11-24T15:30:22.303Z,48.30
2022-11-24T15:33:25.269Z,58.45
2022-11-24T15:36:28.372Z,52.47
2022-11-24T15:39:31.874Z,68.10
2022-11-24T15:42:34.736Z,68.82
2022-11-24T15:45:38.265Z,72.85
2022-11-24T15:48:41.197Z,61.13
2022-11-24T15:51:46.358Z,57.95
2022-11-24T15:54:53.477Z,71.70
2022-11-24T15:57:56.813Z,73.90
2022-11-24T16:01:00.212Z,63.40
2022-11-24T16:04:03.627Z,57.05
2022-11-24T16:07:07.672Z,57.80
2022-11-24T16:10:35.882Z,49.97
2022-11-24T16:13:39.387Z,30.35
2022-11-24T16:16:42.903Z,16.77
2022-11-24T16:19:45.822Z,8.80
2022-11-24T16:22:48.794Z,11.05
2022-11-24T16:25:51.744Z,19.50
2022-11-24T16:28:54.661Z,15.87
2022-11-24T16:31:58.582Z,17.45
2022-11-24T16:35:01.458Z,24.13
2022-11-24T16:38:04.446Z,10.63
2022-11-24T16:41:07.878Z,17.27
2022-11-24T16:44:11.172Z,11.32
2022-11-24T16:47:14.176Z,14.98
2022-11-24T16:50:17.368Z,18.10
2022-11-24T16:53:21.063Z,19.00
2022-11-24T16:56:24.824Z,17.63
2022-11-24T16:59:27.757Z,18.03
2022-11-24T17:02:31.797Z,18.65
2022-11-24T17:05:35.351Z,17.35
2022-11-24T17:08:40.383Z,14.07
2022-11-24T17:11:44.110Z,13.05
2022-11-24T17:15:09.341Z,13.63
2022-11-24T17:18:24.599Z,16.05
2022-11-24T17:21:28.917Z,19.58
2022-11-24T17:24:32.529Z,18.90
2022-11-24T17:27:35.467Z,27.00
2022-11-24T17:30:39.079Z,34.73
2022-11-24T17:33:42.622Z,30.13
2022-11-24T17:36:46.594Z,25.83
2022-11-24T17:40:12.626Z,39.00
2022-11-24T17:43:12.314Z,45.60
2022-11-24T17:46:15.761Z,39.78
2022-11-24T17:49:21.593Z,43.92
2022-11-24T17:52:26.713Z,44.95
2022-11-24T17:55:30.492Z,28.00
2022-11-24T17:58:39.718Z,10.82
2022-11-24T18:01:45.531Z,10.63
2022-11-24T18:04:48.365Z,14.23
2022-11-24T18:07:51.596Z,8.38
2022-11-24T18:10:55.096Z,5.67
2022-11-24T18:14:02.143Z,4.93
2022-11-24T18:17:05.548Z,2.70
2022-11-24T18:20:09.889Z,3.15
2022-11-24T18:23:13.572Z,2.50
2022-11-24T18:26:18.158Z,2.15
2022-11-24T18:29:22.047Z,3.35
2022-11-24T18:32:25.572Z,2.80
2022-11-24T18:35:28.379Z,3.42
2022-11-24T18:38:31.664Z,4.22
2022-11-24T18:41:35.035Z,9.00
2022-11-24T18:44:38.608Z,8.77
2022-11-24T18:47:41.489Z,13.80
2022-11-24T18:50:44.737Z,7.60
2022-11-24T18:53:53.841Z,11.43
2022-11-24T18:57:02.958Z,9.52
2022-11-24T19:00:08.171Z,4.32
2022-11-24T19:03:11.371Z,4.77
2022-11-24T19:06:22.647Z,6.20
2022-11-24T19:09:26.392Z,3.50
2022-11-24T19:12:29.422Z,4.63
2022-11-24T19:15:35.294Z,3.58
2022-11-24T19:18:39.012Z,2.67
2022-11-24T19:21:42.101Z,2.35
2022-11-24T19:24:47.983Z,3.67
2022-11-24T19:27:50.772Z,3.65
2022-11-24T19:30:54.048Z,13.63
2022-11-24T19:33:58.870Z,6.93
2022-11-24T19:37:02.009Z,1.58
2022-11-24T19:40:06.186Z,3.13
2022-11-24T19:43:09.107Z,4.93
2022-11-24T19:46:15.117Z,5.03
2022-11-24T19:49:19.164Z,2.05
2022-11-24T19:52:23.647Z,0.98
2022-11-24T19:55:26.959Z,1.92
2022-11-24T19:58:30.799Z,2.22
2022-11-24T20:01:38.239Z,2.65
2022-11-24T20:04:43.551Z,2.50
2022-11-24T20:07:47.598Z,4.28
2022-11-24T20:10:51.275Z,3.17
2022-11-24T20:13:55.350Z,4.93
2022-11-24T20:16:59.273Z,2.88
2022-11-24T20:20:02.132Z,4.45
2022-11-24T20:23:05.610Z,4.60
2022-11-24T20:26:14.689Z,4.68
2022-11-24T20:29:18.141Z,3.58
2022-11-24T20:32:21.644Z,2.35
2022-11-24T20:35:25.591Z,2.50
2022-11-24T20:38:31.599Z,3.50
2022-11-24T20:41:36.647Z,4.43
2022-11-24T20:44:39.688Z,6.33
2022-11-24T20:47:42.603Z,11.45
2022-11-24T20:50:51.118Z,8.02
2022-11-24T20:53:58.434Z,11.20
2022-11-24T20:57:02.048Z,7.18
2022-11-24T21:00:06.728Z,5.75
2022-11-24T21:03:10.231Z,10.35
2022-11-24T21:06:15.198Z,4.23
2022-11-24T21:09:19.851Z,3.80
2022-11-24T21:12:23.227Z,6.72
2022-11-24T21:15:26.774Z,5.83
2022-11-24T21:18:30.691Z,8.98
2022-11-24T21:21:35.942Z,8.35
2022-11-24T21:24:39.103Z,7.95
2022-11-24T21:27:41.867Z,9.10
2022-11-24T21:30:45.020Z,9.30
2022-11-24T21:33:50.808Z,7.93
2022-11-24T21:36:53.736Z,7.50
2022-11-24T21:39:56.868Z,6.60
2022-11-24T21:43:00.211Z,5.38
2022-11-24T21:46:11.801Z,4.97
2022-11-24T21:49:15.467Z,5.03
2022-11-24T21:52:19.241Z,4.30
2022-11-24T21:55:22.413Z,8.25
2022-11-24T21:58:26.886Z,7.88
2022-11-24T22:01:30.864Z,6.78
2022-11-24T22:04:34.676Z,7.07
2022-11-24T22:07:38.238Z,5.20
2022-11-24T22:10:41.100Z,6.68
2022-11-24T22:13:45.164Z,6.38
2022-11-24T22:16:48.072Z,3.50
2022-11-24T22:19:51.288Z,8.40
2022-11-24T22:22:54.914Z,6.28
2022-11-24T22:26:03.787Z,9.05
2022-11-24T22:29:08.266Z,4.72
2022-11-24T22:32:12.388Z,8.65
2022-11-24T22:35:15.652Z,9.38
2022-11-24T22:38:18.928Z,8.03
2022-11-24T22:41:22.747Z,2.25
2022-11-24T22:44:26.746Z,3.88
2022-11-24T22:47:30.618Z,7.00
2022-11-24T22:50:33.562Z,7.40
2022-11-24T22:53:36.927Z,11.70
2022-11-24T22:56:39.798Z,10.05
2022-11-24T22:59:42.593Z,11.45
2022-11-24T23:02:45.413Z,11.68
2022-11-24T23:05:48.947Z,11.45
2022-11-24T23:08:52.935Z,10.63
2022-11-24T23:11:56.624Z,7.53
2022-11-24T23:14:59.445Z,6.35
2022-11-24T23:18:03.030Z,4.93
2022-11-24T23:21:16.982Z,4.75
2022-11-24T23:24:20.286Z,8.00
2022-11-24T23:27:23.763Z,3.58
2022-11-24T23:30:26.689Z,4.35
2022-11-24T23:33:30.022Z,2.53
2022-11-24T23:36:34.433Z,1.88
2022-11-24T23:39:37.291Z,3.17
2022-11-24T23:42:40.578Z,2.25
2022-11-24T23:45:43.480Z,2.42
2022-11-24T23:48:46.611Z,2.30
2022-11-24T23:51:50.201Z,3.42
2022-11-24T23:54:53.008Z,2.53
2022-11-24T23:57:55.831Z,2.55
